createdAt,value
2019-03-22T00:00:02.420Z,1029.84
2019-03-22T00:01:02.435Z,1029.88
2019-03-22T00:02:02.401Z,1029.81
2019-03-22T00:03:02.404Z,1029.80
2019-03-22T00:04:02.380Z,1029.79
2019-03-22T00:05:02.368Z,1029.80
2019-03-22T00:06:02.374Z,1029.77
2019-03-22T00:07:02.365Z,1029.73
2019-03-22T00:08:02.380Z,1029.68
2019-03-22T00:09:02.327Z,1029.69
2019-03-22T00:10:02.321Z,1029.72
2019-03-22T00:11:02.297Z,1029.70
2019-03-22T00:12:04.314Z,1029.75
2019-03-22T00:13:02.311Z,1029.69
2019-03-22T00:14:02.312Z,1029.77
2019-03-22T00:15:02.274Z,1029.74
2019-03-22T00:16:02.287Z,1029.72
2019-03-22T00:17:02.240Z,1029.73
2019-03-22T00:18:02.237Z,1029.69
2019-03-22T00:19:02.251Z,1029.68
2019-03-22T00:20:02.235Z,1029.65
2019-03-22T00:21:02.193Z,1029.57
2019-03-22T00:22:02.185Z,1029.57
2019-03-22T00:23:02.175Z,1029.53
2019-03-22T00:24:02.189Z,1029.51
2019-03-22T00:25:02.186Z,1029.49
2019-03-22T00:26:02.149Z,1029.51
2019-03-22T00:27:02.145Z,1029.47
2019-03-22T00:28:02.130Z,1029.46
2019-03-22T00:29:02.144Z,1029.51
2019-03-22T00:30:02.106Z,1029.48
2019-03-22T00:31:02.131Z,1029.46
2019-03-22T00:32:02.100Z,1029.48
2019-03-22T00:33:02.074Z,1029.50
2019-03-22T00:34:02.058Z,1029.48
2019-03-22T00:35:02.053Z,1029.50
2019-03-22T00:36:02.079Z,1029.55
2019-03-22T00:37:02.027Z,1029.52
2019-03-22T00:38:02.029Z,1029.52
2019-03-22T00:39:02.007Z,1029.45
2019-03-22T00:40:01.992Z,1029.47
2019-03-22T00:41:02.010Z,1029.50
2019-03-22T00:42:01.970Z,1029.49
2019-03-22T00:43:01.954Z,1029.52
2019-03-22T00:44:01.993Z,1029.58
2019-03-22T00:45:01.939Z,1029.56
2019-03-22T00:46:01.940Z,1029.54
2019-03-22T00:47:01.938Z,1029.56
2019-03-22T00:48:01.923Z,1029.52
2019-03-22T00:49:01.889Z,1029.52
2019-03-22T00:50:01.880Z,1029.48
2019-03-22T00:51:01.878Z,1029.56
2019-03-22T00:52:01.898Z,1029.52
2019-03-22T00:53:01.869Z,1029.53
2019-03-22T00:54:01.865Z,1029.52
2019-03-22T00:55:02.404Z,1029.55
2019-03-22T00:56:01.823Z,1029.51
2019-03-22T00:57:01.856Z,1029.54
2019-03-22T00:58:01.801Z,1029.55
2019-03-22T00:59:01.826Z,1029.54
2019-03-22T01:00:01.833Z,1029.60
2019-03-22T01:01:01.763Z,1029.60
2019-03-22T01:02:01.798Z,1029.59
2019-03-22T01:03:01.767Z,1029.58
2019-03-22T01:04:01.735Z,1029.61
2019-03-22T01:05:01.739Z,1029.59
2019-03-22T01:06:01.719Z,1029.60
2019-03-22T01:07:01.752Z,1029.60
2019-03-22T01:08:01.719Z,1029.59
2019-03-22T01:09:01.685Z,1029.59
2019-03-22T01:10:01.691Z,1029.55
2019-03-22T01:11:01.679Z,1029.56
2019-03-22T01:12:01.719Z,1029.60
2019-03-22T01:13:01.650Z,1029.66
2019-03-22T01:14:01.711Z,1029.68
2019-03-22T01:15:01.622Z,1029.66
2019-03-22T01:16:01.605Z,1029.66
2019-03-22T01:17:01.604Z,1029.64
2019-03-22T01:18:01.614Z,1029.66
2019-03-22T01:19:01.570Z,1029.67
2019-03-22T01:20:01.592Z,1029.68
2019-03-22T01:21:01.548Z,1029.63
2019-03-22T01:22:01.619Z,1029.65
2019-03-22T01:23:01.536Z,1029.69
2019-03-22T01:24:01.557Z,1029.68
2019-03-22T01:25:01.534Z,1029.66
2019-03-22T01:26:01.525Z,1029.67
2019-03-22T01:27:01.498Z,1029.71
2019-03-22T01:28:01.495Z,1029.73
2019-03-22T01:29:01.505Z,1029.76
2019-03-22T01:30:01.463Z,1029.73
2019-03-22T01:31:01.445Z,1029.70
2019-03-22T01:32:01.428Z,1029.81
2019-03-22T01:33:01.421Z,1029.80
2019-03-22T01:34:01.433Z,1029.86
2019-03-22T01:35:01.479Z,1029.84
2019-03-22T01:36:01.391Z,1029.84
2019-03-22T01:37:01.392Z,1029.87
2019-03-22T01:38:01.366Z,1029.85
2019-03-22T01:39:01.358Z,1029.83
2019-03-22T01:40:01.380Z,1029.80
2019-03-22T01:41:01.340Z,1029.81
2019-03-22T01:42:01.324Z,1029.79
2019-03-22T01:43:01.319Z,1029.78
2019-03-22T01:44:01.301Z,1029.80
2019-03-22T01:45:01.308Z,1029.74
2019-03-22T01:46:01.308Z,1029.66
2019-03-22T01:47:01.276Z,1029.62
2019-03-22T01:48:01.260Z,1029.56
2019-03-22T01:49:01.252Z,1029.60
2019-03-22T01:50:01.258Z,1029.58
2019-03-22T01:51:01.282Z,1029.57
2019-03-22T01:52:01.215Z,1029.58
2019-03-22T01:53:01.205Z,1029.53
2019-03-22T01:54:01.202Z,1029.54
2019-03-22T01:55:01.214Z,1029.58
2019-03-22T01:56:01.178Z,1029.54
2019-03-22T01:57:01.191Z,1029.54
2019-03-22T01:58:01.157Z,1029.57
2019-03-22T01:59:01.152Z,1029.57
2019-03-22T02:00:01.148Z,1029.56
2019-03-22T02:01:01.146Z,1029.55
2019-03-22T02:02:01.119Z,1029.55
2019-03-22T02:03:01.114Z,1029.46
2019-03-22T02:04:01.092Z,1029.47
2019-03-22T02:05:01.085Z,1029.44
2019-03-22T02:06:01.095Z,1029.44
2019-03-22T02:07:01.075Z,1029.45
2019-03-22T02:08:01.086Z,1029.46
2019-03-22T02:09:01.039Z,1029.43
2019-03-22T02:10:01.063Z,1029.50
2019-03-22T02:11:01.009Z,1029.44
2019-03-22T02:12:01.021Z,1029.41
2019-03-22T02:13:01.040Z,1029.42
2019-03-22T02:14:00.981Z,1029.41
2019-03-22T02:15:00.967Z,1029.39
2019-03-22T02:16:01.008Z,1029.41
2019-03-22T02:17:00.958Z,1029.49
2019-03-22T02:18:00.942Z,1029.48
2019-03-22T02:19:00.975Z,1029.48
2019-03-22T02:20:00.915Z,1029.50
2019-03-22T02:21:00.906Z,1029.47
2019-03-22T02:22:00.907Z,1029.46
2019-03-22T02:23:00.901Z,1029.42
2019-03-22T02:24:00.901Z,1029.44
2019-03-22T02:25:00.903Z,1029.39
2019-03-22T02:26:00.863Z,1029.40
2019-03-22T02:27:00.843Z,1029.44
2019-03-22T02:28:04.347Z,1029.47
2019-03-22T02:29:00.844Z,1029.43
2019-03-22T02:30:00.836Z,1029.40
2019-03-22T02:31:00.838Z,1029.40
2019-03-22T02:32:00.796Z,1029.43
2019-03-22T02:33:00.801Z,1029.40
2019-03-22T02:34:00.761Z,1029.43
2019-03-22T02:35:00.831Z,1029.41
2019-03-22T02:36:01.183Z,1029.39
2019-03-22T02:37:00.732Z,1029.34
2019-03-22T02:38:00.750Z,1029.39
2019-03-22T02:39:00.726Z,1029.40
2019-03-22T02:40:00.702Z,1029.37
2019-03-22T02:41:00.699Z,1029.31
2019-03-22T02:42:00.704Z,1029.30
2019-03-22T02:43:00.674Z,1029.30
2019-03-22T02:44:00.675Z,1029.34
2019-03-22T02:45:00.678Z,1029.35
2019-03-22T02:46:00.666Z,1029.36
2019-03-22T02:47:00.693Z,1029.41
2019-03-22T02:48:00.624Z,1029.39
2019-03-22T02:49:00.628Z,1029.37
2019-03-22T02:50:11.700Z,1029.41
2019-03-22T02:51:01.607Z,1029.42
2019-03-22T02:52:00.572Z,1029.38
2019-03-22T02:53:00.584Z,1029.32
2019-03-22T02:54:00.553Z,1029.33
2019-03-22T02:55:00.663Z,1029.35
2019-03-22T02:56:00.659Z,1029.35
2019-03-22T02:57:00.522Z,1029.33
2019-03-22T02:58:00.549Z,1029.34
2019-03-22T02:59:00.525Z,1029.38
2019-03-22T03:00:00.536Z,1029.38
2019-03-22T03:01:00.495Z,1029.33
2019-03-22T03:02:00.469Z,1029.35
2019-03-22T03:03:00.461Z,1029.37
2019-03-22T03:04:00.465Z,1029.39
2019-03-22T03:05:00.534Z,1029.34
2019-03-22T03:06:00.444Z,1029.39
2019-03-22T03:07:00.424Z,1029.37
2019-03-22T03:08:00.405Z,1029.38
2019-03-22T03:09:00.415Z,1029.35
2019-03-22T03:10:00.407Z,1029.34
2019-03-22T03:11:00.364Z,1029.36
2019-03-22T03:12:00.381Z,1029.35
2019-03-22T03:13:00.367Z,1029.36
2019-03-22T03:14:00.348Z,1029.32
2019-03-22T03:15:00.456Z,1029.32
2019-03-22T03:16:00.317Z,1029.33
2019-03-22T03:17:00.315Z,1029.27
2019-03-22T03:18:00.404Z,1029.27
2019-03-22T03:19:00.301Z,1029.28
2019-03-22T03:20:00.465Z,1029.26
2019-03-22T03:21:00.287Z,1029.19
2019-03-22T03:22:00.251Z,1029.21
2019-03-22T03:23:00.243Z,1029.25
2019-03-22T03:24:00.250Z,1029.17
2019-03-22T03:25:00.449Z,1029.15
2019-03-22T03:26:00.219Z,1029.16
2019-03-22T03:27:00.196Z,1029.12
2019-03-22T03:28:00.237Z,1029.14
2019-03-22T03:29:00.174Z,1029.09
2019-03-22T03:30:00.664Z,1029.13
2019-03-22T03:31:00.203Z,1029.14
2019-03-22T03:32:00.180Z,1029.14
2019-03-22T03:33:00.132Z,1029.14
2019-03-22T03:34:00.169Z,1029.12
2019-03-22T03:35:00.927Z,1029.11
2019-03-22T03:36:00.114Z,1029.17
2019-03-22T03:37:00.124Z,1029.12
2019-03-22T03:38:00.095Z,1029.19
2019-03-22T03:39:00.063Z,1029.20
2019-03-22T03:40:00.064Z,1029.22
2019-03-22T03:41:00.049Z,1029.26
2019-03-22T03:42:00.054Z,1029.29
2019-03-22T03:43:00.061Z,1029.28
2019-03-22T03:44:00.021Z,1029.28
2019-03-22T03:45:00.003Z,1029.25
2019-03-22T03:45:59.991Z,1029.26
2019-03-22T03:47:00.010Z,1029.33
2019-03-22T03:47:59.994Z,1029.24
2019-03-22T03:48:59.979Z,1029.27
2019-03-22T03:49:59.950Z,1029.22
2019-03-22T03:50:59.930Z,1029.24
2019-03-22T03:51:59.925Z,1029.23
2019-03-22T03:52:59.926Z,1029.18
2019-03-22T03:53:59.927Z,1029.22
2019-03-22T03:54:59.923Z,1029.21
2019-03-22T03:55:59.904Z,1029.19
2019-03-22T03:56:59.895Z,1029.23
2019-03-22T03:57:59.862Z,1029.19
2019-03-22T03:58:59.887Z,1029.20
2019-03-22T03:59:59.849Z,1029.21
2019-03-22T04:00:59.873Z,1029.10
2019-03-22T04:01:59.823Z,1029.09
2019-03-22T04:02:59.813Z,1029.12
2019-03-22T04:03:59.839Z,1029.14
2019-03-22T04:04:59.801Z,1029.07
2019-03-22T04:05:59.817Z,1029.11
2019-03-22T04:06:59.779Z,1029.12
2019-03-22T04:07:59.752Z,1029.15
2019-03-22T04:08:59.753Z,1029.13
2019-03-22T04:09:59.799Z,1029.17
2019-03-22T04:10:59.747Z,1029.18
2019-03-22T04:11:59.731Z,1029.13
2019-03-22T04:12:59.717Z,1029.20
2019-03-22T04:13:59.692Z,1029.17
2019-03-22T04:14:59.690Z,1029.12
2019-03-22T04:15:59.715Z,1029.15
2019-03-22T04:16:59.649Z,1029.08
2019-03-22T04:17:59.649Z,1029.11
2019-03-22T04:18:59.659Z,1029.14
2019-03-22T04:19:59.628Z,1029.19
2019-03-22T04:20:59.613Z,1029.10
2019-03-22T04:21:59.639Z,1029.22
2019-03-22T04:22:59.615Z,1029.21
2019-03-22T04:23:59.598Z,1029.18
2019-03-22T04:24:59.582Z,1029.16
2019-03-22T04:25:59.567Z,1029.23
2019-03-22T04:26:59.607Z,1029.21
2019-03-22T04:28:00.124Z,1029.25
2019-03-22T04:29:07.168Z,1029.23
2019-03-22T04:30:00.611Z,1029.30
2019-03-22T04:30:59.521Z,1029.33
2019-03-22T04:31:59.488Z,1029.34
2019-03-22T04:32:59.587Z,1029.40
2019-03-22T04:33:59.488Z,1029.41
2019-03-22T04:34:59.462Z,1029.41
2019-03-22T04:35:59.468Z,1029.46
2019-03-22T04:36:59.445Z,1029.48
2019-03-22T04:37:59.462Z,1029.44
2019-03-22T04:38:59.442Z,1029.47
2019-03-22T04:39:59.425Z,1029.48
2019-03-22T04:40:59.401Z,1029.51
2019-03-22T04:41:59.432Z,1029.51
2019-03-22T04:42:59.376Z,1029.50
2019-03-22T04:43:59.369Z,1029.53
2019-03-22T04:44:59.374Z,1029.54
2019-03-22T04:45:59.353Z,1029.54
2019-03-22T04:46:59.342Z,1029.54
2019-03-22T04:47:59.338Z,1029.56
2019-03-22T04:48:59.309Z,1029.52
2019-03-22T04:49:59.358Z,1029.55
2019-03-22T04:50:59.304Z,1029.51
2019-03-22T04:51:59.303Z,1029.52
2019-03-22T04:52:59.274Z,1029.53
2019-03-22T04:53:59.329Z,1029.57
2019-03-22T04:54:59.243Z,1029.59
2019-03-22T04:55:59.252Z,1029.58
2019-03-22T04:56:59.236Z,1029.57
2019-03-22T04:57:59.297Z,1029.62
2019-03-22T04:58:59.222Z,1029.61
2019-03-22T04:59:59.190Z,1029.67
2019-03-22T05:00:59.226Z,1029.67
2019-03-22T05:01:59.177Z,1029.72
2019-03-22T05:02:59.187Z,1029.69
2019-03-22T05:03:59.436Z,1029.70
2019-03-22T05:04:59.153Z,1029.69
2019-03-22T05:05:59.130Z,1029.75
2019-03-22T05:06:59.133Z,1029.73
2019-03-22T05:07:59.108Z,1029.76
2019-03-22T05:08:59.138Z,1029.73
2019-03-22T05:09:59.083Z,1029.71
2019-03-22T05:10:59.083Z,1029.73
2019-03-22T05:11:59.092Z,1029.72
2019-03-22T05:12:59.063Z,1029.66
2019-03-22T05:13:59.038Z,1029.70
2019-03-22T05:14:59.042Z,1029.68
2019-03-22T05:15:59.119Z,1029.69
2019-03-22T05:16:59.017Z,1029.71
2019-03-22T05:17:59.046Z,1029.75
2019-03-22T05:18:59.001Z,1029.74
2019-03-22T05:19:58.979Z,1029.77
2019-03-22T05:20:58.986Z,1029.78
2019-03-22T05:21:58.959Z,1029.75
2019-03-22T05:22:58.976Z,1029.79
2019-03-22T05:23:58.966Z,1029.76
2019-03-22T05:24:58.951Z,1029.74
2019-03-22T05:25:58.916Z,1029.72
2019-03-22T05:26:58.914Z,1029.76
2019-03-22T05:27:58.927Z,1029.77
2019-03-22T05:28:58.879Z,1029.82
2019-03-22T05:29:58.903Z,1029.87
2019-03-22T05:30:58.858Z,1029.85
2019-03-22T05:31:58.855Z,1029.85
2019-03-22T05:32:58.861Z,1029.89
2019-03-22T05:33:58.829Z,1029.86
2019-03-22T05:34:58.823Z,1029.94
2019-03-22T05:35:58.827Z,1029.88
2019-03-22T05:36:58.796Z,1029.87
2019-03-22T05:37:58.826Z,1029.86
2019-03-22T05:38:58.833Z,1029.91
2019-03-22T05:39:58.781Z,1029.91
2019-03-22T05:40:58.811Z,1029.96
2019-03-22T05:41:58.801Z,1029.94
2019-03-22T05:42:58.735Z,1029.94
2019-03-22T05:43:58.749Z,1029.91
2019-03-22T05:44:58.712Z,1029.91
2019-03-22T05:45:58.699Z,1029.90
2019-03-22T05:46:58.701Z,1029.88
2019-03-22T05:47:58.680Z,1029.89
2019-03-22T05:48:58.705Z,1029.91
2019-03-22T05:49:58.656Z,1029.91
2019-03-22T05:50:58.642Z,1029.94
2019-03-22T05:51:58.635Z,1029.96
2019-03-22T05:52:58.637Z,1029.98
2019-03-22T05:53:58.648Z,1030.04
2019-03-22T05:54:58.618Z,1030.07
2019-03-22T05:55:58.598Z,1030.10
2019-03-22T05:56:58.580Z,1030.10
2019-03-22T05:57:58.565Z,1030.12
2019-03-22T05:58:58.599Z,1030.13
2019-03-22T05:59:58.638Z,1030.19
2019-03-22T06:00:58.543Z,1030.22
2019-03-22T06:01:58.519Z,1030.19
2019-03-22T06:02:58.522Z,1030.22
2019-03-22T06:03:58.504Z,1030.25
2019-03-22T06:04:58.638Z,1030.22
2019-03-22T06:05:58.479Z,1030.25
2019-03-22T06:06:58.479Z,1030.23
2019-03-22T06:07:58.454Z,1030.23
2019-03-22T06:08:58.447Z,1030.27
2019-03-22T06:09:58.489Z,1030.26
2019-03-22T06:10:58.436Z,1030.20
2019-03-22T06:11:58.418Z,1030.22
2019-03-22T06:12:58.421Z,1030.20
2019-03-22T06:13:58.422Z,1030.19
2019-03-22T06:14:58.397Z,1030.14
2019-03-22T06:15:58.405Z,1030.17
2019-03-22T06:16:58.405Z,1030.13
2019-03-22T06:17:59.091Z,1030.15
2019-03-22T06:18:58.348Z,1030.14
2019-03-22T06:19:58.394Z,1030.13
2019-03-22T06:20:58.398Z,1030.11
2019-03-22T06:21:58.448Z,1030.08
2019-03-22T06:22:58.307Z,1030.08
2019-03-22T06:23:58.290Z,1030.08
2019-03-22T06:24:58.305Z,1030.08
2019-03-22T06:25:58.434Z,1030.09
2019-03-22T06:26:58.252Z,1030.10
2019-03-22T06:27:58.295Z,1030.08
2019-03-22T06:28:58.248Z,1030.10
2019-03-22T06:29:58.236Z,1030.09
2019-03-22T06:30:58.228Z,1030.08
2019-03-22T06:31:58.287Z,1030.11
2019-03-22T06:32:58.209Z,1030.08
2019-03-22T06:33:58.200Z,1030.11
2019-03-22T06:34:58.199Z,1030.10
2019-03-22T06:35:58.177Z,1030.08
2019-03-22T06:36:58.220Z,1030.10
2019-03-22T06:37:58.153Z,1030.14
2019-03-22T06:38:58.136Z,1030.12
2019-03-22T06:39:58.122Z,1030.07
2019-03-22T06:40:58.109Z,1030.06
2019-03-22T06:41:58.108Z,1030.08
2019-03-22T06:42:58.124Z,1030.02
2019-03-22T06:43:58.069Z,1029.99
2019-03-22T06:44:58.097Z,1030.00
2019-03-22T06:45:58.053Z,1030.02
2019-03-22T06:46:58.076Z,1029.98
2019-03-22T06:47:58.051Z,1029.98
2019-03-22T06:48:58.016Z,1029.94
2019-03-22T06:49:58.028Z,1029.95
2019-03-22T06:50:58.030Z,1029.94
2019-03-22T06:51:57.990Z,1029.88
2019-03-22T06:52:58.017Z,1029.90
2019-03-22T06:53:58.044Z,1029.89
2019-03-22T06:54:57.969Z,1029.92
2019-03-22T06:55:57.947Z,1029.94
2019-03-22T06:56:58.016Z,1030.01
2019-03-22T06:57:57.959Z,1030.01
2019-03-22T06:58:57.933Z,1030.02
2019-03-22T07:00:06.436Z,1030.05
2019-03-22T07:00:58.897Z,1029.99
2019-03-22T07:01:57.882Z,1029.98
2019-03-22T07:02:57.878Z,1029.96
2019-03-22T07:03:57.997Z,1029.93
2019-03-22T07:04:57.873Z,1029.91
2019-03-22T07:05:57.865Z,1029.91
2019-03-22T07:06:57.833Z,1029.87
2019-03-22T07:07:57.862Z,1029.89
2019-03-22T07:08:57.814Z,1029.91
2019-03-22T07:09:57.834Z,1029.91
2019-03-22T07:10:57.802Z,1029.89
2019-03-22T07:11:57.776Z,1029.88
2019-03-22T07:12:57.766Z,1029.83
2019-03-22T07:13:57.755Z,1029.84
2019-03-22T07:14:57.764Z,1029.85
2019-03-22T07:15:57.769Z,1029.86
2019-03-22T07:16:58.932Z,1029.83
2019-03-22T07:17:57.707Z,1029.89
2019-03-22T07:18:57.737Z,1029.87
2019-03-22T07:19:57.705Z,1029.88
2019-03-22T07:20:57.687Z,1029.88
2019-03-22T07:21:57.685Z,1029.92
2019-03-22T07:22:57.672Z,1029.93
2019-03-22T07:23:57.673Z,1029.95
2019-03-22T07:24:57.692Z,1029.98
2019-03-22T07:25:57.627Z,1029.97
2019-03-22T07:26:57.647Z,1030.02
2019-03-22T07:27:57.616Z,1030.02
2019-03-22T07:28:57.609Z,1030.01
2019-03-22T07:29:57.585Z,1029.99
2019-03-22T07:30:57.594Z,1030.02
2019-03-22T07:31:57.593Z,1030.03
2019-03-22T07:32:57.579Z,1030.01
2019-03-22T07:33:57.557Z,1030.06
2019-03-22T07:34:57.523Z,1030.04
2019-03-22T07:35:57.558Z,1029.95
2019-03-22T07:36:57.522Z,1029.92
2019-03-22T07:37:57.545Z,1029.95
2019-03-22T07:38:57.485Z,1029.97
2019-03-22T07:39:57.498Z,1029.97
2019-03-22T07:40:57.484Z,1029.98
2019-03-22T07:41:57.446Z,1029.99
2019-03-22T07:42:57.454Z,1029.98
2019-03-22T07:43:57.517Z,1029.98
2019-03-22T07:44:57.419Z,1029.94
2019-03-22T07:45:57.417Z,1029.99
2019-03-22T07:46:57.421Z,1029.94
2019-03-22T07:47:57.396Z,1029.98
2019-03-22T07:48:57.391Z,1029.90
2019-03-22T07:49:57.393Z,1029.90
2019-03-22T07:50:57.355Z,1029.93
2019-03-22T07:51:57.362Z,1029.94
2019-03-22T07:52:57.327Z,1029.91
2019-03-22T07:53:57.373Z,1029.88
2019-03-22T07:54:57.333Z,1029.88
2019-03-22T07:55:57.569Z,1029.88
2019-03-22T07:56:57.300Z,1029.87
2019-03-22T07:57:57.283Z,1029.88
2019-03-22T07:58:57.266Z,1029.87
2019-03-22T07:59:57.258Z,1029.89
2019-03-22T08:00:57.283Z,1029.89
2019-03-22T08:01:57.247Z,1029.88
2019-03-22T08:02:57.220Z,1029.88
2019-03-22T08:03:57.216Z,1029.88
2019-03-22T08:04:57.202Z,1029.87
2019-03-22T08:05:57.202Z,1029.86
2019-03-22T08:06:57.202Z,1029.85
2019-03-22T08:07:57.165Z,1029.89
2019-03-22T08:08:57.157Z,1029.87
2019-03-22T08:09:57.246Z,1029.89
2019-03-22T08:10:57.134Z,1029.86
2019-03-22T08:11:57.159Z,1029.87
2019-03-22T08:12:57.118Z,1029.83
2019-03-22T08:13:57.151Z,1029.81
2019-03-22T08:14:57.103Z,1029.74
2019-03-22T08:15:57.699Z,1029.80
2019-03-22T08:16:57.096Z,1029.78
2019-03-22T08:17:57.362Z,1029.75
2019-03-22T08:18:57.086Z,1029.76
2019-03-22T08:19:57.428Z,1029.77
2019-03-22T08:20:57.045Z,1029.77
2019-03-22T08:21:57.031Z,1029.75
2019-03-22T08:22:57.035Z,1029.78
2019-03-22T08:23:57.014Z,1029.76
2019-03-22T08:24:57.013Z,1029.75
2019-03-22T08:25:57.003Z,1029.76
2019-03-22T08:26:57.059Z,1029.74
2019-03-22T08:27:56.992Z,1029.76
2019-03-22T08:28:56.989Z,1029.78
2019-03-22T08:29:56.945Z,1029.70
2019-03-22T08:30:56.918Z,1029.79
2019-03-22T08:31:56.963Z,1029.80
2019-03-22T08:32:56.898Z,1029.83
2019-03-22T08:33:56.925Z,1029.85
2019-03-22T08:34:56.900Z,1029.87
2019-03-22T08:35:56.896Z,1029.81
2019-03-22T08:36:56.986Z,1029.83
2019-03-22T08:37:56.890Z,1029.80
2019-03-22T08:38:56.903Z,1029.82
2019-03-22T08:39:56.839Z,1029.83
2019-03-22T08:40:56.842Z,1029.80
2019-03-22T08:41:57.004Z,1029.75
2019-03-22T08:42:56.812Z,1029.77
2019-03-22T08:43:56.797Z,1029.80
2019-03-22T08:44:56.790Z,1029.80
2019-03-22T08:45:56.777Z,1029.75
2019-03-22T08:46:56.786Z,1029.78
2019-03-22T08:47:56.759Z,1029.78
2019-03-22T08:48:56.807Z,1029.76
2019-03-22T08:49:56.739Z,1029.74
2019-03-22T08:50:56.784Z,1029.73
2019-03-22T08:51:56.706Z,1029.75
2019-03-22T08:52:56.692Z,1029.67
2019-03-22T08:53:56.668Z,1029.69
2019-03-22T08:54:56.711Z,1029.69
2019-03-22T08:55:56.672Z,1029.63
2019-03-22T08:56:56.643Z,1029.62
2019-03-22T08:57:56.671Z,1029.64
2019-03-22T08:58:56.756Z,1029.61
2019-03-22T08:59:56.624Z,1029.64
2019-03-22T09:00:58.028Z,1029.59
2019-03-22T09:01:56.605Z,1029.60
2019-03-22T09:02:56.583Z,1029.56
2019-03-22T09:03:56.594Z,1029.58
2019-03-22T09:04:56.600Z,1029.57
2019-03-22T09:05:56.597Z,1029.56
2019-03-22T09:06:58.936Z,1029.60
2019-03-22T09:07:56.521Z,1029.60
2019-03-22T09:08:56.525Z,1029.61
2019-03-22T09:09:56.522Z,1029.56
2019-03-22T09:10:56.489Z,1029.59
2019-03-22T09:11:56.541Z,1029.57
2019-03-22T09:12:56.498Z,1029.52
2019-03-22T09:13:56.536Z,1029.51
2019-03-22T09:14:56.443Z,1029.53
2019-03-22T09:15:56.444Z,1029.52
2019-03-22T09:16:56.422Z,1029.47
2019-03-22T09:17:56.473Z,1029.47
2019-03-22T09:18:56.428Z,1029.47
2019-03-22T09:19:56.392Z,1029.46
2019-03-22T09:20:56.395Z,1029.47
2019-03-22T09:21:57.356Z,1029.43
2019-03-22T09:22:56.361Z,1029.40
2019-03-22T09:23:56.368Z,1029.46
2019-03-22T09:24:56.392Z,1029.41
2019-03-22T09:25:56.327Z,1029.40
2019-03-22T09:26:56.324Z,1029.39
2019-03-22T09:27:56.339Z,1029.38
2019-03-22T09:28:56.334Z,1029.43
2019-03-22T09:29:56.290Z,1029.44
2019-03-22T09:31:09.426Z,1029.47
2019-03-22T09:31:57.257Z,1029.45
2019-03-22T09:32:56.276Z,1029.44
2019-03-22T09:33:56.237Z,1029.45
2019-03-22T09:34:56.243Z,1029.40
2019-03-22T09:35:56.222Z,1029.38
2019-03-22T09:36:56.208Z,1029.36
2019-03-22T09:37:56.197Z,1029.34
2019-03-22T09:38:56.213Z,1029.34
2019-03-22T09:39:56.197Z,1029.32
2019-03-22T09:40:56.180Z,1029.31
2019-03-22T09:41:56.157Z,1029.30
2019-03-22T09:42:56.151Z,1029.29
2019-03-22T09:43:56.146Z,1029.33
2019-03-22T09:44:56.164Z,1029.31
2019-03-22T09:45:56.108Z,1029.29
2019-03-22T09:46:56.103Z,1029.29
2019-03-22T09:47:56.101Z,1029.25
2019-03-22T09:48:56.102Z,1029.25
2019-03-22T09:49:56.085Z,1029.24
2019-03-22T09:50:56.073Z,1029.23
2019-03-22T09:51:56.060Z,1029.20
2019-03-22T09:52:56.052Z,1029.20
2019-03-22T09:53:56.063Z,1029.23
2019-03-22T09:54:56.018Z,1029.21
2019-03-22T09:55:56.031Z,1029.22
2019-03-22T09:56:56.009Z,1029.17
2019-03-22T09:57:56.063Z,1029.21
2019-03-22T09:58:55.964Z,1029.16
2019-03-22T09:59:55.994Z,1029.16
2019-03-22T10:00:56.028Z,1029.12
2019-03-22T10:01:55.951Z,1029.12
2019-03-22T10:02:55.935Z,1029.09
2019-03-22T10:03:55.952Z,1029.07
2019-03-22T10:04:55.932Z,1029.06
2019-03-22T10:05:55.916Z,1029.03
2019-03-22T10:06:55.933Z,1029.06
2019-03-22T10:07:55.869Z,1029.03
2019-03-22T10:08:55.884Z,1029.03
2019-03-22T10:09:55.854Z,1029.02
2019-03-22T10:10:55.853Z,1028.98
2019-03-22T10:11:55.827Z,1029.01
2019-03-22T10:12:55.821Z,1028.96
2019-03-22T10:13:55.826Z,1028.94
2019-03-22T10:14:55.840Z,1028.95
2019-03-22T10:15:55.818Z,1028.89
2019-03-22T10:16:55.772Z,1028.88
2019-03-22T10:17:55.809Z,1028.87
2019-03-22T10:18:55.759Z,1028.83
2019-03-22T10:19:55.764Z,1028.85
2019-03-22T10:20:55.759Z,1028.84
2019-03-22T10:21:55.785Z,1028.88
2019-03-22T10:22:55.742Z,1028.84
2019-03-22T10:23:55.705Z,1028.86
2019-03-22T10:24:55.708Z,1028.89
2019-03-22T10:25:55.698Z,1028.84
2019-03-22T10:26:55.830Z,1028.86
2019-03-22T10:27:55.681Z,1028.87
2019-03-22T10:28:55.666Z,1028.83
2019-03-22T10:29:55.635Z,1028.84
2019-03-22T10:30:55.612Z,1028.89
2019-03-22T10:31:55.612Z,1028.84
2019-03-22T10:32:55.637Z,1028.79
2019-03-22T10:33:55.611Z,1028.79
2019-03-22T10:34:55.578Z,1028.73
2019-03-22T10:35:55.644Z,1028.74
2019-03-22T10:36:55.557Z,1028.74
2019-03-22T10:38:00.375Z,1028.78
2019-03-22T10:38:56.566Z,1028.75
2019-03-22T10:39:55.543Z,1028.74
2019-03-22T10:40:55.623Z,1028.72
2019-03-22T10:41:55.516Z,1028.74
2019-03-22T10:42:55.559Z,1028.73
2019-03-22T10:43:55.495Z,1028.70
2019-03-22T10:44:55.491Z,1028.70
2019-03-22T10:45:55.459Z,1028.70
2019-03-22T10:46:55.458Z,1028.69
2019-03-22T10:47:55.468Z,1028.65
2019-03-22T10:48:55.447Z,1028.65
2019-03-22T10:49:55.530Z,1028.65
2019-03-22T10:50:55.441Z,1028.59
2019-03-22T10:51:57.679Z,1028.56
2019-03-22T10:52:55.381Z,1028.56
2019-03-22T10:53:55.455Z,1028.57
2019-03-22T10:54:55.382Z,1028.54
2019-03-22T10:55:55.358Z,1028.54
2019-03-22T10:56:55.327Z,1028.51
2019-03-22T10:57:55.677Z,1028.54
2019-03-22T10:58:55.312Z,1028.53
2019-03-22T10:59:55.301Z,1028.51
2019-03-22T11:00:55.337Z,1028.52
2019-03-22T11:02:03.238Z,1028.43
2019-03-22T11:02:56.282Z,1028.36
2019-03-22T11:03:55.364Z,1028.35
2019-03-22T11:04:55.264Z,1028.34
2019-03-22T11:05:55.284Z,1028.34
2019-03-22T11:06:55.270Z,1028.29
2019-03-22T11:07:55.251Z,1028.25
2019-03-22T11:08:55.205Z,1028.25
2019-03-22T11:09:55.182Z,1028.32
2019-03-22T11:10:55.188Z,1028.34
2019-03-22T11:11:55.162Z,1028.30
2019-03-22T11:12:55.162Z,1028.28
2019-03-22T11:13:55.146Z,1028.27
2019-03-22T11:14:55.230Z,1028.26
2019-03-22T11:15:55.168Z,1028.26
2019-03-22T11:16:55.157Z,1028.20
2019-03-22T11:17:55.118Z,1028.16
2019-03-22T11:18:55.092Z,1028.15
2019-03-22T11:19:55.129Z,1028.12
2019-03-22T11:21:04.551Z,1028.00
2019-03-22T11:21:56.073Z,1028.03
2019-03-22T11:22:55.044Z,1028.08
2019-03-22T11:23:55.040Z,1028.06
2019-03-22T11:24:55.027Z,1028.07
2019-03-22T11:26:03.826Z,1028.01
2019-03-22T11:26:56.028Z,1028.02
2019-03-22T11:27:54.996Z,1027.96
2019-03-22T11:28:54.986Z,1027.98
2019-03-22T11:29:54.970Z,1027.98
2019-03-22T11:31:01.148Z,1027.92
2019-03-22T11:31:55.943Z,1027.91
2019-03-22T11:32:55.005Z,1027.91
2019-03-22T11:33:54.930Z,1027.80
2019-03-22T11:34:54.940Z,1027.85
2019-03-22T11:35:54.905Z,1027.80
2019-03-22T11:36:54.940Z,1027.79
2019-03-22T11:37:54.915Z,1027.81
2019-03-22T11:38:54.871Z,1027.84
2019-03-22T11:39:54.910Z,1027.84
2019-03-22T11:40:54.863Z,1027.89
2019-03-22T11:41:54.848Z,1027.90
2019-03-22T11:42:54.845Z,1027.90
2019-03-22T11:43:54.852Z,1027.88
2019-03-22T11:44:54.810Z,1027.89
2019-03-22T11:45:54.796Z,1027.87
2019-03-22T11:46:54.787Z,1027.84
2019-03-22T11:47:54.798Z,1027.79
2019-03-22T11:48:54.790Z,1027.73
2019-03-22T11:49:54.768Z,1027.72
2019-03-22T11:50:54.744Z,1027.69
2019-03-22T11:51:54.729Z,1027.67
2019-03-22T11:52:54.759Z,1027.67
2019-03-22T11:53:54.731Z,1027.70
2019-03-22T11:54:54.693Z,1027.68
2019-03-22T11:55:54.703Z,1027.75
2019-03-22T11:56:54.687Z,1027.75
2019-03-22T11:57:54.663Z,1027.77
2019-03-22T11:58:54.693Z,1027.76
2019-03-22T11:59:54.645Z,1027.70
2019-03-22T12:00:54.875Z,1027.71
2019-03-22T12:01:54.616Z,1027.67
2019-03-22T12:02:54.604Z,1027.68
2019-03-22T12:03:54.597Z,1027.68
2019-03-22T12:04:54.608Z,1027.65